Time;durP1;ratioP1;P1;durP2;ratioP2;P2;SDS_P1;SDS_P2;PMS_P1;PMS_P2;Temp;Humidity;BMP_temperature;BMP_pressure;BME280_temperature;BME280_humidity;BME280_pressure;Samples;Min_cycle;Max_cycle;Signal;HPM_P1;HPM_P2
2020/12/09 00:05:37;;;;;;;1999.90;999.90;;;;;;;3.71;76.71;100508.00;15858577;28;20035;-61
2020/12/09 00:13:10;;;;;;;1999.90;999.90;;;;;;;3.87;75.85;100497.63;15849809;28;20039;-61
2020/12/09 00:20:44;;;;;;;1999.90;999.90;;;;;;;3.72;76.30;100507.72;15870581;28;20496;-62
2020/12/09 00:28:17;;;;;;;1999.90;999.90;;;;;;;3.86;75.86;100491.28;15870821;28;20046;-60
2020/12/09 00:35:50;;;;;;;1999.90;999.90;;;;;;;3.82;75.74;100487.47;15848640;28;20101;-62
2020/12/09 00:43:23;;;;;;;1999.90;999.90;;;;;;;3.80;76.11;100508.19;15848825;28;20489;-63
2020/12/09 00:50:59;;;;;;;1999.90;999.90;;;;;;;3.78;76.31;100508.50;15837650;28;20055;-62
2020/12/09 00:58:33;;;;;;;1999.90;999.90;;;;;;;3.74;76.18;100494.44;15859533;28;20058;-63
2020/12/09 01:06:07;;;;;;;1999.90;999.90;;;;;;;4.18;75.14;100506.38;15859369;28;20066;-63
2020/12/09 01:13:44;;;;;;;1999.90;999.90;;;;;;;4.12;75.54;100513.06;15842498;28;20047;-63
2020/12/09 01:21:26;;;;;;;1999.90;999.90;;;;;;;3.89;75.97;100510.03;15876596;28;20054;-60
2020/12/09 01:28:59;;;;;;;1999.90;999.90;;;;;;;3.75;77.67;100496.09;15857147;28;20188;-61
2020/12/09 01:36:33;;;;;;;1999.90;999.90;;;;;;;3.82;78.08;100497.69;15875503;28;20489;-60
2020/12/09 01:44:06;;;;;;;1999.90;999.90;;;;;;;3.69;78.90;100486.22;15875276;28;20039;-61
2020/12/09 01:51:39;;;;;;;1999.90;999.90;;;;;;;3.81;78.50;100502.38;15856780;28;20417;-61
2020/12/09 01:59:12;;;;;;;;;;;;;;;3.80;79.00;100488.88;15855913;28;20040;-62
2020/12/09 02:06:46;;;;;;;1999.90;999.90;;;;;;;3.99;78.15;100492.50;15871948;28;19973;-62
2020/12/09 02:14:18;;;;;;;1999.90;999.90;;;;;;;4.02;78.36;100481.69;15838542;28;20052;-61
2020/12/09 02:21:53;;;;;;;1999.90;999.90;;;;;;;3.73;79.84;100475.41;15873104;28;20142;-61
2020/12/09 02:29:26;;;;;;;1999.90;999.90;;;;;;;3.88;79.25;100479.94;15854048;28;20085;-60
2020/12/09 02:37:00;;;;;;;1999.90;999.90;;;;;;;3.71;80.33;100474.88;15838023;28;20053;-61
2020/12/09 02:44:33;;;;;;;1999.90;999.90;;;;;;;4.04;79.17;100479.44;15871198;28;20039;-61
2020/12/09 02:52:06;;;;;;;1999.90;999.90;;;;;;;3.89;79.28;100471.38;15853342;28;20063;-63
2020/12/09 02:59:39;;;;;;;1999.90;999.90;;;;;;;3.86;79.89;100460.09;15848110;28;20089;-61
2020/12/09 03:07:12;;;;;;;1999.90;999.90;;;;;;;3.74;80.24;100471.53;15820321;28;20047;-61
2020/12/09 03:14:45;;;;;;;1999.90;999.90;;;;;;;3.82;80.96;100475.59;15869873;28;20043;-60
2020/12/09 03:22:18;;;;;;;1999.90;999.90;;;;;;;3.92;80.71;100464.44;15867860;28;20407;-60
2020/12/09 03:29:52;;;;;;;;;;;;;;;4.03;79.54;100452.13;15850331;28;20039;-61
2020/12/09 03:37:25;;;;;;;1999.90;999.90;;;;;;;3.91;79.89;100476.59;15868375;28;19920;-63
2020/12/09 03:44:58;;;;;;;1999.90;999.90;;;;;;;4.12;79.14;100475.22;15850383;28;20031;-63
2020/12/09 03:52:31;;;;;;;1999.90;999.90;;;;;;;4.00;79.71;100472.06;15867749;28;20115;-62
2020/12/09 04:00:04;;;;;;;1999.90;999.90;;;;;;;3.90;80.60;100478.53;15832747;28;20050;-62
2020/12/09 04:07:39;;;;;;;1999.90;999.90;;;;;;;3.93;80.81;100480.69;15866435;28;20032;-60
2020/12/09 04:15:11;;;;;;;1999.90;999.90;;;;;;;3.76;80.49;100488.66;15832627;28;20513;-60
2020/12/09 04:22:45;;;;;;;1999.90;999.90;;;;;;;3.86;80.42;100482.19;15866983;28;20573;-63
2020/12/09 04:30:17;;;;;;;1999.90;999.90;;;;;;;4.19;79.10;100480.41;15861947;28;20558;-61
2020/12/09 04:37:55;;;;;;;1999.90;999.90;;;;;;;4.20;79.10;100490.31;15880195;28;20039;-63
2020/12/09 04:45:29;;;;;;;1999.90;999.90;;;;;;;4.24;78.87;100506.00;15848638;28;20138;-62
2020/12/09 04:53:10;;;;;;;1999.90;999.90;;;;;;;4.17;79.48;100510.22;15865622;28;20086;-61
2020/12/09 05:00:44;;;;;;;1999.90;999.90;;;;;;;4.09;79.27;100499.84;15879435;28;20467;-62
2020/12/09 05:08:20;;;;;;;1999.90;999.90;;;;;;;4.07;79.71;100497.41;15858777;28;20044;-62
2020/12/09 05:15:55;;;;;;;1999.90;999.90;;;;;;;4.05;80.23;100496.84;15876996;28;20071;-62
2020/12/09 05:23:32;;;;;;;1999.90;999.90;;;;;;;3.93;80.62;100493.69;15858109;28;20070;-60
2020/12/09 05:31:04;;;;;;;1999.90;999.90;;;;;;;3.85;80.14;100511.69;15857486;28;20509;-62
2020/12/09 05:38:40;;;;;;;1999.90;999.90;;;;;;;3.89;80.45;100510.03;15855928;28;20492;-61
2020/12/09 05:46:13;;;;;;;1999.90;999.90;;;;;;;4.10;79.49;100504.25;15859080;28;20070;-62
2020/12/09 05:53:48;;;;;;;;;;;;;;;3.88;80.31;100535.97;15880169;28;20040;-62
2020/12/09 06:01:21;;;;;;;1999.90;999.90;;;;;;;3.87;80.16;100534.34;15878463;28;19920;-61
2020/12/09 06:08:57;;;;;;;1999.90;999.90;;;;;;;3.92;80.68;100522.41;15874398;28;20043;-61
2020/12/09 06:16:29;;;;;;;1999.90;999.90;;;;;;;4.18;79.78;100534.81;15855003;28;20040;-63
2020/12/09 06:24:04;;;;;;;1999.90;999.90;;;;;;;3.99;79.67;100545.78;15856391;28;20062;-62
2020/12/09 06:31:36;;;;;;;;;;;;;;;4.04;79.54;100534.69;15858391;28;20047;-61
2020/12/09 06:39:16;;;;;;;1999.90;999.90;;;;;;;4.05;79.14;100543.78;15852598;28;19923;-63
2020/12/09 06:46:51;;;;;;;1999.90;999.90;;;;;;;4.13;79.14;100550.59;15827749;28;20333;-61
2020/12/09 06:54:40;;;;;;;1999.90;999.90;;;;;;;3.91;80.01;100535.38;15852429;28;20109;-61
2020/12/09 07:02:25;;;;;;;1999.90;999.90;;;;;;;4.00;79.61;100549.38;15835413;28;20100;-64
2020/12/09 07:10:01;;;;;;;1999.90;999.90;;;;;;;3.88;79.23;100560.00;15870147;28;20047;-62
2020/12/09 07:17:35;;;;;;;1999.90;999.90;;;;;;;3.86;78.77;100585.16;15869374;28;20503;-64
2020/12/09 07:25:09;;;;;;;1999.90;999.90;;;;;;;3.81;79.83;100587.94;15869044;28;20066;-59
2020/12/09 07:32:42;;;;;;;1999.90;999.90;;;;;;;4.06;78.27;100586.84;15869664;28;20588;-62
2020/12/09 07:40:19;;;;;;;1999.90;999.90;;;;;;;4.01;78.91;100598.78;15850806;28;20039;-61
2020/12/09 07:48:01;;;;;;;1999.90;999.90;;;;;;;4.10;78.03;100587.09;15850328;28;20035;-63
2020/12/09 07:55:36;;;;;;;1999.90;999.90;;;;;;;3.90;77.96;100590.91;15849538;28;20069;-61
2020/12/09 08:03:18;;;;;;;1999.90;999.90;;;;;;;4.07;77.93;100598.75;15848514;28;20150;-61
2020/12/09 08:10:52;;;;;;;1999.90;999.90;;;;;;;3.73;78.57;100597.66;15867337;28;20432;-59
2020/12/09 08:18:25;;;;;;;1999.90;999.90;;;;;;;3.92;77.95;100605.22;15867507;28;20039;-62
2020/12/09 08:25:58;;;;;;;1999.90;999.90;;;;;;;3.89;78.23;100598.34;15826608;28;20138;-59
2020/12/09 08:33:31;;;;;;;;;;;;;;;3.94;78.22;100611.28;15866432;28;20043;-62
2020/12/09 08:41:07;;;;;;;1999.90;999.90;;;;;;;3.84;77.81;100612.19;15865528;28;19924;-61
2020/12/09 08:48:40;;;;;;;1999.90;999.90;;;;;;;4.02;77.37;100621.69;15899119;28;20064;-61
2020/12/09 08:56:14;;;;;;;1999.90;999.90;;;;;;;4.22;77.04;100628.94;15893122;27;20439;-62
2020/12/09 09:03:51;;;;;;;1999.90;999.90;;;;;;;4.00;77.77;100630.28;15910177;28;20046;-62
2020/12/09 09:11:29;;;;;;;1999.90;999.90;;;;;;;3.75;78.63;100622.22;15915701;27;20066;-58
2020/12/09 09:19:03;;;;;;;1999.90;999.90;;;;;;;3.98;77.46;100626.97;15864609;27;20039;-60
2020/12/09 09:26:36;;;;;;;1999.90;999.90;;;;;;;4.09;77.66;100638.75;15850236;28;20050;-62
2020/12/09 09:34:09;;;;;;;1999.90;999.90;;;;;;;3.85;77.71;100649.72;15870955;28;20044;-62
2020/12/09 09:41:42;;;;;;;1999.90;999.90;;;;;;;3.87;77.91;100655.81;15852552;28;20055;-61
2020/12/09 09:49:15;;;;;;;1999.90;999.90;;;;;;;4.10;76.88;100656.97;15853091;28;20432;-62
2020/12/09 09:56:49;;;;;;;1999.90;999.90;;;;;;;4.06;77.68;100658.63;15871005;28;20134;-61
2020/12/09 10:04:24;;;;;;;1999.90;999.90;;;;;;;4.26;76.86;100649.31;15870852;28;20047;-63
2020/12/09 10:11:59;;;;;;;1999.90;999.90;;;;;;;4.38;76.44;100646.16;15872319;28;20131;-62
2020/12/09 10:19:31;;;;;;;1999.90;999.90;;;;;;;4.19;76.84;100640.59;15873636;28;20447;-62
2020/12/09 10:27:04;;;;;;;1999.90;999.90;;;;;;;4.46;76.27;100638.03;15873057;28;20113;-62
2020/12/09 10:34:38;;;;;;;1999.90;999.90;;;;;;;4.26;76.87;100638.28;15833839;28;20035;-62
2020/12/09 10:42:12;;;;;;;;;;;;;;;4.50;76.55;100652.94;15849768;28;20393;-62
2020/12/09 10:49:44;;;;;;;1999.90;999.90;;;;;;;4.46;76.33;100651.88;15857289;27;19949;-63
2020/12/09 10:57:18;;;;;;;1999.90;999.90;;;;;;;4.59;75.61;100647.59;15868395;27;20047;-61
2020/12/09 11:04:51;;;;;;;1999.90;999.90;;;;;;;4.67;75.14;100649.69;15846783;28;20060;-60
2020/12/09 11:12:25;;;;;;;1999.90;999.90;;;;;;;4.49;75.55;100648.53;15867237;28;20043;-62
2020/12/09 11:19:57;;;;;;;1999.90;999.90;;;;;;;4.34;76.65;100655.03;15875118;27;20043;-62
2020/12/09 11:27:31;;;;;;;1999.90;999.90;;;;;;;4.36;76.81;100640.94;15866205;28;20032;-62
2020/12/09 11:35:04;;;;;;;1999.90;999.90;;;;;;;4.22;76.50;100643.56;15846485;28;20048;-59
2020/12/09 11:42:38;;;;;;;1999.90;999.90;;;;;;;4.60;75.81;100627.94;15856583;28;20382;-60
2020/12/09 11:50:11;;;;;;;1999.90;999.90;;;;;;;4.57;75.75;100630.47;15846575;28;20047;-61
2020/12/09 11:57:44;;;;;;;1999.90;999.90;;;;;;;4.62;75.48;100634.00;15861991;28;20050;-61
2020/12/09 12:05:21;;;;;;;1999.90;999.90;;;;;;;4.48;75.95;100624.78;15866017;28;20123;-62
2020/12/09 12:12:55;;;;;;;1999.90;999.90;;;;;;;5.08;74.75;100622.31;15847100;28;20047;-61
2020/12/09 12:20:28;;;;;;;1999.90;999.90;;;;;;;4.78;74.07;100618.03;15846808;28;20093;-60
2020/12/09 12:28:02;;;;;;;1999.90;999.90;;;;;;;4.87;74.09;100629.25;15873606;28;20050;-57
2020/12/09 12:35:35;;;;;;;1999.90;999.90;;;;;;;4.56;75.22;100626.06;15832593;28;20146;-62
2020/12/09 12:43:08;;;;;;;1999.90;999.90;;;;;;;4.32;75.58;100626.06;15865548;28;20483;-61
2020/12/09 12:50:41;;;;;;;1999.90;999.90;;;;;;;4.43;75.32;100633.13;15889376;27;20042;-62
2020/12/09 12:58:15;;;;;;;1999.90;999.90;;;;;;;4.64;75.33;100628.16;15881944;27;20134;-60
2020/12/09 13:05:49;;;;;;;1999.90;999.90;;;;;;;4.74;75.31;100638.28;15909056;27;20047;-62
2020/12/09 13:13:23;;;;;;;1999.90;999.90;;;;;;;4.67;75.41;100633.09;15873511;28;20046;-62
2020/12/09 13:21:00;;;;;;;1999.90;999.90;;;;;;;4.51;75.13;100632.47;15856221;28;20455;-59
2020/12/09 13:28:33;;;;;;;1999.90;999.90;;;;;;;4.43;75.41;100648.88;15871801;28;20085;-61
2020/12/09 13:36:06;;;;;;;1999.90;999.90;;;;;;;4.56;75.41;100654.50;15893809;27;20043;-61
2020/12/09 13:43:40;;;;;;;1999.90;999.90;;;;;;;4.91;74.49;100656.03;15874165;27;20055;-61
2020/12/09 13:51:12;;;;;;;1999.90;999.90;;;;;;;4.67;75.22;100663.50;15857733;28;20042;-61
2020/12/09 13:58:46;;;;;;;1999.90;999.90;;;;;;;4.46;75.59;100662.09;15857596;28;20035;-62
2020/12/09 14:06:22;;;;;;;1999.90;999.90;;;;;;;4.45;75.43;100658.50;15859854;28;20497;-63
2020/12/09 14:13:59;;;;;;;1999.90;999.90;;;;;;;4.63;74.87;100657.75;15876668;28;20127;-63
2020/12/09 14:21:31;;;;;;;1999.90;999.90;;;;;;;4.42;76.20;100650.81;15876029;28;20063;-63
2020/12/09 14:29:06;;;;;;;1999.90;999.90;;;;;;;4.57;75.71;100655.31;15872353;28;20062;-62
2020/12/09 14:36:39;;;;;;;1999.90;999.90;;;;;;;4.54;75.26;100656.75;15872125;28;20062;-63
2020/12/09 14:44:13;;;;;;;1999.90;999.90;;;;;;;4.32;76.30;100664.75;15872161;28;20047;-63
2020/12/09 14:51:46;;;;;;;1999.90;999.90;;;;;;;4.52;76.01;100680.28;15849941;28;20040;-62
2020/12/09 14:59:20;;;;;;;;;;;;;;;4.27;75.72;100667.53;15867814;28;20044;-62
2020/12/09 15:06:53;;;;;;;1999.90;999.90;;;;;;;4.56;75.41;100668.31;15866541;28;20397;-63
2020/12/09 15:14:29;;;;;;;1999.90;999.90;;;;;;;4.32;76.60;100675.78;15850638;28;20178;-63
2020/12/09 15:22:02;;;;;;;1999.90;999.90;;;;;;;4.11;77.19;100685.41;15849243;27;20103;-63
2020/12/09 15:29:36;;;;;;;1999.90;999.90;;;;;;;4.33;76.37;100686.53;15868483;27;20055;-60
2020/12/09 15:37:09;;;;;;;1999.90;999.90;;;;;;;4.47;75.89;100696.91;15863605;28;20071;-62
2020/12/09 15:44:43;;;;;;;1999.90;999.90;;;;;;;4.42;75.85;100686.72;15847836;28;20057;-62
2020/12/09 15:52:16;;;;;;;1999.90;999.90;;;;;;;4.11;77.42;100688.16;15864656;28;20131;-61
2020/12/09 15:59:49;;;;;;;1999.90;999.90;;;;;;;4.18;77.14;100685.88;15844555;28;20062;-62
2020/12/09 16:07:22;;;;;;;1999.90;999.90;;;;;;;4.45;75.97;100693.59;15824472;28;20146;-63
2020/12/09 16:15:02;;;;;;;1999.90;999.90;;;;;;;4.29;77.17;100701.25;15857597;28;20043;-63
2020/12/09 16:22:35;;;;;;;1999.90;999.90;;;;;;;4.27;76.07;100711.72;15872565;28;20496;-62
2020/12/09 16:30:09;;;;;;;1999.90;999.90;;;;;;;4.34;76.61;100709.47;15874495;28;20043;-62
2020/12/09 16:37:42;;;;;;;1999.90;999.90;;;;;;;4.07;77.64;100715.53;15876247;28;20043;-60
2020/12/09 16:45:15;;;;;;;1999.90;999.90;;;;;;;3.94;78.25;100721.69;15849797;28;20071;-63
2020/12/09 16:52:48;;;;;;;1999.90;999.90;;;;;;;4.02;77.69;100718.31;15858043;28;20047;-62
2020/12/09 17:00:21;;;;;;;1999.90;999.90;;;;;;;4.16;78.12;100721.22;15858477;28;20048;-61
2020/12/09 17:07:55;;;;;;;1999.90;999.90;;;;;;;3.95;78.00;100723.34;15858307;28;20036;-62
2020/12/09 17:15:28;;;;;;;1999.90;999.90;;;;;;;4.12;77.35;100739.50;15896918;27;20042;-62
2020/12/09 17:23:01;;;;;;;1999.90;999.90;;;;;;;3.79;78.49;100746.69;15893103;27;20074;-63
2020/12/09 17:30:34;;;;;;;1999.90;999.90;;;;;;;3.95;78.01;100739.91;15856279;28;20516;-63
2020/12/09 17:38:07;;;;;;;1999.90;999.90;;;;;;;3.84;77.85;100739.16;15855895;28;20080;-62
2020/12/09 17:45:41;;;;;;;1999.90;999.90;;;;;;;3.87;78.24;100738.63;15854024;28;20479;-62
2020/12/09 17:53:13;;;;;;;1999.90;999.90;;;;;;;3.94;77.54;100749.31;15854839;28;20043;-62
2020/12/09 18:00:47;;;;;;;1999.90;999.90;;;;;;;3.82;77.57;100752.44;15871894;28;20398;-63
2020/12/09 18:08:20;;;;;;;1999.90;999.90;;;;;;;4.16;76.80;100743.34;15855129;28;20553;-62
2020/12/09 18:15:55;;;;;;;1999.90;999.90;;;;;;;3.77;77.81;100744.22;15872796;28;20040;-61
2020/12/09 18:23:28;;;;;;;1999.90;999.90;;;;;;;3.96;77.29;100753.47;15873209;28;20116;-62
2020/12/09 18:31:01;;;;;;;1999.90;999.90;;;;;;;4.04;77.27;100752.00;15872320;28;20048;-62
2020/12/09 18:38:35;;;;;;;1999.90;999.90;;;;;;;3.74;77.96;100744.75;15873922;28;20298;-63
2020/12/09 18:46:08;;;;;;;1999.90;999.90;;;;;;;3.76;77.58;100754.44;15869351;28;20089;-64
2020/12/09 18:53:41;;;;;;;;;;;;;;;3.77;78.09;100755.25;15852804;28;20051;-63
2020/12/09 19:01:15;;;;;;;1999.90;999.90;;;;;;;3.76;78.28;100765.47;15867843;28;19919;-62
2020/12/09 19:08:49;;;;;;;1999.90;999.90;;;;;;;4.00;77.32;100753.69;15840033;28;20035;-65
2020/12/09 19:16:24;;;;;;;1999.90;999.90;;;;;;;4.04;76.95;100761.09;15867716;28;20051;-63
2020/12/09 19:23:56;;;;;;;1999.90;999.90;;;;;;;3.94;76.96;100776.91;15833972;28;20052;-61
2020/12/09 19:31:32;;;;;;;1999.90;999.90;;;;;;;3.87;77.23;100777.25;15867030;28;20047;-63
2020/12/09 19:39:05;;;;;;;1999.90;999.90;;;;;;;3.75;77.92;100758.31;15849932;28;20492;-63
2020/12/09 19:46:39;;;;;;;;;;;;;;;3.52;79.38;100767.25;15848827;28;20040;-64
2020/12/09 19:54:11;;;;;;;1999.90;999.90;;;;;;;3.40;79.47;100775.88;15848524;28;19924;-60
2020/12/09 20:01:46;;;;;;;1999.90;999.90;;;;;;;3.57;78.99;100766.41;15869576;28;20071;-64
2020/12/09 20:09:19;;;;;;;1999.90;999.90;;;;;;;3.37;79.46;100775.63;15866078;28;20047;-61
2020/12/09 20:16:56;;;;;;;1999.90;999.90;;;;;;;3.39;80.13;100777.00;15846646;28;20543;-60
2020/12/09 20:24:29;;;;;;;1999.90;999.90;;;;;;;3.47;79.61;100781.09;15843855;28;20132;-62
2020/12/09 20:32:02;;;;;;;1999.90;999.90;;;;;;;3.42;80.13;100778.34;15846044;28;20101;-60
2020/12/09 20:39:35;;;;;;;1999.90;999.90;;;;;;;3.37;79.19;100783.91;15862530;28;20043;-62
2020/12/09 20:47:14;;;;;;;1999.90;999.90;;;;;;;3.49;78.99;100778.88;15831507;28;20051;-62
2020/12/09 20:54:47;;;;;;;1999.90;999.90;;;;;;;3.34;78.99;100768.75;15863087;28;20082;-61
2020/12/09 21:02:20;;;;;;;1999.90;999.90;;;;;;;3.50;79.12;100771.41;15841064;28;20036;-63
2020/12/09 21:09:53;;;;;;;1999.90;999.90;;;;;;;3.55;78.60;100765.88;15892896;27;20046;-61
2020/12/09 21:17:30;;;;;;;1999.90;999.90;;;;;;;3.55;78.48;100760.38;15852264;28;20456;-63
2020/12/09 21:25:02;;;;;;;1999.90;999.90;;;;;;;3.55;78.55;100765.88;15874264;28;20051;-62
2020/12/09 21:32:36;;;;;;;1999.90;999.90;;;;;;;3.39;78.47;100732.84;15858185;28;20110;-63
2020/12/09 21:40:10;;;;;;;1999.90;999.90;;;;;;;3.32;78.85;100735.09;15875495;28;20040;-63
2020/12/09 21:47:44;;;;;;;;;;;;;;;3.46;78.22;100769.25;15873473;28;20493;-62
2020/12/09 21:55:17;;;;;;;1999.90;999.90;;;;;;;3.57;78.19;100761.72;15856979;28;19920;-64
2020/12/09 22:02:51;;;;;;;1999.90;999.90;;;;;;;3.55;77.36;100752.09;15846112;28;20094;-61
2020/12/09 22:10:24;;;;;;;1999.90;999.90;;;;;;;3.51;77.88;100739.97;15859050;28;20565;-62
2020/12/09 22:17:57;;;;;;;1999.90;999.90;;;;;;;3.06;78.40;100741.84;15837325;28;20497;-60
2020/12/09 22:25:30;;;;;;;1999.90;999.90;;;;;;;2.90;79.48;100736.38;15872585;28;20039;-63
2020/12/09 22:33:04;;;;;;;1999.90;999.90;;;;;;;3.05;79.29;100721.72;15853819;28;20036;-63
2020/12/09 22:40:37;;;;;;;1999.90;999.90;;;;;;;3.19;78.60;100730.22;15827356;28;20052;-60
2020/12/09 22:48:11;;;;;;;1999.90;999.90;;;;;;;3.22;78.73;100739.84;15871748;28;20043;-63
2020/12/09 22:55:43;;;;;;;1999.90;999.90;;;;;;;2.86;79.48;100732.56;15871005;28;20044;-61
2020/12/09 23:03:17;;;;;;;1999.90;999.90;;;;;;;2.92;79.11;100729.78;15870422;28;20039;-62
2020/12/09 23:10:50;;;;;;;1999.90;999.90;;;;;;;2.80;79.28;100735.59;15851568;28;20040;-62
2020/12/09 23:18:24;;;;;;;1999.90;999.90;;;;;;;2.64;79.50;100737.59;15869746;28;20348;-63
2020/12/09 23:25:57;;;;;;;1999.90;999.90;;;;;;;2.66;79.16;100738.13;15851052;28;20484;-62
2020/12/09 23:33:30;;;;;;;1999.90;999.90;;;;;;;2.75;79.01;100733.69;15869139;28;20317;-63
2020/12/09 23:41:03;;;;;;;1999.90;999.90;;;;;;;2.47;80.32;100717.78;15851504;28;20065;-61
2020/12/09 23:48:37;;;;;;;1999.90;999.90;;;;;;;2.57;79.77;100707.56;15850133;28;20058;-63
2020/12/09 23:56:09;;;;;;;1999.90;999.90;;;;;;;2.39;80.78;100719.19;15849651;28;20052;-63
